Magnetawan, Canada
Current Conditions -  °F | °C
As of 1:00 PM on Sunday 21 Dec 2014 (Local Time) from CYYB Reporting Station
Scattered Clouds Scattered Clouds  
Wind Chill: 19°   Ceiling: Unl
Heat Index: 27°   Visibility: 30mi
Dew Point: 19°   Wind: 7mph
Humidity: 74%   Direction: 220°SW
Pressure: 30.22"   Gusts: NA
Location:  45.67°N, 79.63°W
Report Text: CYYB 211800Z 22006KT 30SM FEW020 SCT200 M03/M07 A3022 RMK CF1CI2 SLP255
Loading
Personal Weather Stations






























Interactive Weather Map New forecast layout! Learn more

10-Day Weather Forecast

Advertisements
Track Severe Weather on mobile